Time;durP1;ratioP1;P1;durP2;ratioP2;P2;SDS_P1;SDS_P2;PMS_P1;PMS_P2;Temp;Humidity;BMP_temperature;BMP_pressure;BME280_temperature;BME280_humidity;BME280_pressure;Samples;Min_cycle;Max_cycle;Signal;HPM_P1;HPM_P2
2022/04/15 00:00:38;;;;;;;5.25;2.05;;;13.40;99.90;;;;;;5093439;28;20505;-65
2022/04/15 00:03:07;;;;;;;4.50;1.90;;;13.30;99.90;;;;;;5092999;28;20032;-65
2022/04/15 00:05:37;;;;;;;7.13;2.40;;;13.40;99.90;;;;;;5093251;28;20048;-64
2022/04/15 00:08:07;;;;;;;5.15;1.75;;;13.40;99.90;;;;;;5093293;28;20051;-65
2022/04/15 00:10:33;;;;;;;4.78;1.60;;;13.40;99.90;;;;;;5093547;28;20131;-65
2022/04/15 00:12:59;;;;;;;5.40;2.10;;;13.30;99.90;;;;;;5093405;28;20509;-65
2022/04/15 00:15:26;;;;;;;2.97;1.77;;;13.40;99.90;;;;;;5093286;28;20070;-65
2022/04/15 00:17:52;;;;;;;2.60;1.52;;;13.30;99.90;;;;;;5093140;28;20506;-65
2022/04/15 00:20:18;;;;;;;4.60;1.70;;;13.30;99.90;;;;;;5092936;28;20062;-65
2022/04/15 00:22:43;;;;;;;6.95;2.13;;;13.20;99.90;;;;;;5093066;28;20071;-65
2022/04/15 00:25:10;;;;;;;6.53;1.90;;;13.20;99.90;;;;;;5093270;28;20048;-65
2022/04/15 00:27:37;;;;;;;8.30;1.92;;;13.20;99.90;;;;;;5093111;28;20043;-65
2022/04/15 00:30:05;;;;;;;10.77;1.92;;;13.30;99.90;;;;;;5092835;28;20040;-65
2022/04/15 00:32:30;;;;;;;7.75;2.10;;;13.30;99.90;;;;;;5075366;28;20039;-65
2022/04/15 00:34:56;;;;;;;5.57;2.03;;;13.30;99.90;;;;;;5072968;28;20040;-65
2022/04/15 00:37:23;;;;;;;6.80;2.40;;;13.20;99.90;;;;;;5072898;28;20036;-65
2022/04/15 00:39:49;;;;;;;4.45;2.28;;;13.20;99.90;;;;;;5072912;28;20041;-65
2022/04/15 00:42:15;;;;;;;5.75;2.30;;;13.10;99.90;;;;;;5072730;28;20045;-65
2022/04/15 00:44:41;;;;;;;7.70;2.03;;;13.20;99.90;;;;;;5073300;28;20492;-65
2022/04/15 00:47:17;;;;;;;5.78;2.28;;;13.20;99.90;;;;;;5072616;28;20048;-65
2022/04/15 00:49:42;;;;;;;6.00;2.65;;;13.10;99.90;;;;;;5072309;28;20040;-65
2022/04/15 00:52:12;;;;;;;8.30;2.00;;;13.20;99.90;;;;;;5072328;28;20086;-65
2022/04/15 00:54:40;;;;;;;5.40;2.35;;;13.20;99.90;;;;;;5073015;28;20380;-65
2022/04/15 00:57:09;;;;;;;8.95;2.22;;;13.20;99.90;;;;;;5072775;28;20040;-65
2022/04/15 00:59:38;;;;;;;6.43;2.13;;;13.10;99.90;;;;;;5072548;28;20516;-65
2022/04/15 01:02:04;;;;;;;5.63;2.65;;;13.20;99.90;;;;;;5072405;28;20103;-65
2022/04/15 01:04:31;;;;;;;11.90;3.22;;;13.10;99.90;;;;;;5072492;28;20404;-65
2022/04/15 01:07:09;;;;;;;6.55;2.50;;;13.20;99.90;;;;;;5072475;28;20049;-65
2022/04/15 01:09:42;;;;;;;4.45;2.47;;;13.20;99.90;;;;;;5074803;28;20120;-65
2022/04/15 01:12:09;;;;;;;8.05;2.35;;;13.10;99.90;;;;;;5092456;28;20047;-65
2022/04/15 01:14:38;;;;;;;6.93;2.70;;;13.10;99.90;;;;;;5093010;28;20032;-65
2022/04/15 01:17:04;;;;;;;6.97;2.85;;;13.00;99.90;;;;;;5096633;28;20039;-66
2022/04/15 01:19:30;;;;;;;5.75;2.85;;;13.00;99.90;;;;;;5095473;28;20032;-65
2022/04/15 01:21:58;;;;;;;6.97;2.42;;;13.00;99.90;;;;;;5094405;28;20131;-65
2022/04/15 01:24:24;;;;;;;8.25;2.53;;;13.00;99.90;;;;;;5096331;28;20059;-65
2022/04/15 01:26:50;;;;;;;4.53;2.40;;;13.10;99.90;;;;;;5096365;28;20629;-65
2022/04/15 01:29:16;;;;;;;4.53;2.30;;;13.00;99.90;;;;;;5096096;28;20036;-65
2022/04/15 01:31:42;;;;;;;6.10;2.28;;;13.00;99.90;;;;;;5073071;28;20047;-65
2022/04/15 01:34:08;;;;;;;6.35;2.55;;;12.90;99.90;;;;;;5074085;28;20056;-65
2022/04/15 01:36:33;;;;;;;8.32;2.72;;;12.80;99.90;;;;;;5075901;28;20115;-65
2022/04/15 01:39:00;;;;;;;10.90;2.80;;;12.80;99.90;;;;;;5075713;28;20584;-65
2022/04/15 01:41:26;;;;;;;6.07;2.58;;;12.90;99.90;;;;;;5075575;28;20396;-65
2022/04/15 01:43:52;;;;;;;6.50;2.42;;;12.90;99.90;;;;;;5075623;28;20038;-65
2022/04/15 01:46:18;;;;;;;5.30;2.72;;;12.90;99.90;;;;;;5075703;28;20152;-65
2022/04/15 01:48:43;;;;;;;10.88;2.72;;;12.90;99.90;;;;;;5075544;28;20559;-65
2022/04/15 01:51:09;;;;;;;5.85;2.55;;;13.00;99.90;;;;;;5075465;28;20031;-65
2022/04/15 01:53:35;;;;;;;7.45;2.60;;;13.10;99.90;;;;;;5075712;28;20067;-64
2022/04/15 01:56:01;;;;;;;8.13;3.40;;;13.00;99.90;;;;;;5075830;28;20515;-65
2022/04/15 01:58:26;;;;;;;7.32;2.95;;;13.00;99.90;;;;;;5075904;28;20039;-65
2022/04/15 02:00:52;;;;;;;8.57;3.25;;;13.00;99.90;;;;;;5075731;28;20064;-65
2022/04/15 02:03:18;;;;;;;7.28;3.55;;;12.90;99.90;;;;;;5075569;28;20052;-65
2022/04/15 02:05:43;;;;;;;8.15;3.47;;;12.90;99.90;;;;;;5075406;28;20106;-65
2022/04/15 02:08:09;;;;;;;11.20;3.25;;;13.10;99.90;;;;;;5075411;28;20041;-65
2022/04/15 02:10:35;;;;;;;9.38;2.90;;;12.90;99.90;;;;;;5075397;28;20127;-65
2022/04/15 02:13:01;;;;;;;5.50;3.13;;;13.00;99.90;;;;;;5075187;28;20327;-65
2022/04/15 02:15:26;;;;;;;15.75;3.25;;;13.00;99.90;;;;;;5075334;28;20115;-65
2022/04/15 02:17:54;;;;;;;8.10;3.40;;;13.00;99.90;;;;;;5075309;28;20044;-65
2022/04/15 02:20:19;;;;;;;8.32;2.78;;;13.00;99.90;;;;;;5075153;28;20504;-65
2022/04/15 02:22:45;;;;;;;5.07;3.20;;;13.10;99.90;;;;;;5074630;28;20097;-65
2022/04/15 02:25:11;;;;;;;9.32;4.07;;;13.00;99.90;;;;;;5074989;28;20086;-65
2022/04/15 02:27:37;;;;;;;8.27;3.55;;;13.10;99.90;;;;;;5074718;28;20572;-65
2022/04/15 02:30:03;;;;;;;8.98;3.65;;;13.00;99.90;;;;;;5075072;28;20036;-65
2022/04/15 02:32:30;;;;;;;6.68;3.45;;;13.00;99.90;;;;;;5074874;28;20152;-65
2022/04/15 02:34:56;;;;;;;6.47;4.05;;;13.10;99.90;;;;;;5075043;28;20461;-65
2022/04/15 02:37:22;;;;;;;7.47;4.25;;;12.90;99.90;;;;;;5074802;28;20119;-65
2022/04/15 02:39:49;;;;;;;11.02;5.03;;;12.90;99.90;;;;;;5074619;28;20404;-65
2022/04/15 02:42:15;;;;;;;8.88;3.90;;;13.00;99.90;;;;;;5074355;28;20055;-65
2022/04/15 02:44:41;;;;;;;10.30;4.60;;;13.00;99.90;;;;;;5074788;28;20042;-65
2022/04/15 02:47:07;;;;;;;8.60;5.28;;;13.10;99.90;;;;;;5074726;28;20036;-65
2022/04/15 02:49:33;;;;;;;10.88;4.80;;;13.20;99.90;;;;;;5077234;28;20119;-65
2022/04/15 02:51:59;;;;;;;7.55;4.88;;;13.20;99.90;;;;;;5074474;28;20090;-65
2022/04/15 02:54:25;;;;;;;9.57;4.97;;;13.00;99.90;;;;;;5074561;28;20044;-65
2022/04/15 02:56:52;;;;;;;8.63;4.85;;;13.10;99.90;;;;;;5074380;28;20123;-65
2022/04/15 02:59:18;;;;;;;9.68;4.63;;;13.00;99.90;;;;;;5074573;28;20503;-65
2022/04/15 03:01:45;;;;;;;8.68;4.57;;;13.00;99.90;;;;;;5074465;28;20028;-65
2022/04/15 03:04:11;;;;;;;10.95;5.45;;;12.90;99.90;;;;;;5074038;28;20040;-65
2022/04/15 03:06:37;;;;;;;14.05;5.88;;;13.00;99.90;;;;;;5073958;28;20043;-65
2022/04/15 03:09:03;;;;;;;10.68;5.57;;;13.10;99.90;;;;;;5074149;28;20055;-65
2022/04/15 03:11:28;;;;;;;10.48;5.93;;;13.10;99.90;;;;;;5074004;28;20466;-65
2022/04/15 03:13:54;;;;;;;13.82;4.97;;;13.00;99.90;;;;;;5074036;28;20048;-65
2022/04/15 03:16:20;;;;;;;10.70;4.68;;;13.00;99.90;;;;;;5074048;28;20035;-65
2022/04/15 03:18:46;;;;;;;10.70;5.53;;;;;;;;;;5074161;28;20048;-66
2022/04/15 03:21:11;;;;;;;10.25;4.70;;;12.90;99.90;;;;;;5074068;28;20094;-65
2022/04/15 03:23:39;;;;;;;7.72;4.90;;;12.90;99.90;;;;;;5073853;28;20044;-65
2022/04/15 03:26:05;;;;;;;8.13;4.88;;;12.90;99.90;;;;;;5073767;28;20457;-66
2022/04/15 03:28:31;;;;;;;14.10;5.07;;;12.60;99.90;;;;;;5073667;28;20156;-65
2022/04/15 03:30:57;;;;;;;6.20;4.25;;;;;;;;;;5073713;28;20039;-65
2022/04/15 03:33:22;;;;;;;11.68;4.78;;;12.70;99.90;;;;;;5073348;28;20419;-65
2022/04/15 03:35:48;;;;;;;7.80;3.83;;;12.60;99.90;;;;;;5076187;28;20028;-65
2022/04/15 03:38:14;;;;;;;6.50;3.28;;;12.50;99.90;;;;;;5072909;28;20557;-65
2022/04/15 03:40:39;;;;;;;12.60;4.53;;;12.60;99.90;;;;;;5073669;28;20396;-64
2022/04/15 03:43:05;;;;;;;6.93;4.05;;;12.60;99.90;;;;;;5073390;28;20426;-65
2022/04/15 03:45:31;;;;;;;6.60;3.72;;;12.60;99.90;;;;;;5073426;28;20036;-65
2022/04/15 03:47:58;;;;;;;11.43;3.92;;;12.60;99.90;;;;;;5073391;28;20051;-65
2022/04/15 03:50:24;;;;;;;6.50;4.55;;;12.60;99.90;;;;;;5073292;28;20036;-65
2022/04/15 03:52:50;;;;;;;8.00;4.57;;;12.50;99.90;;;;;;5073202;28;20059;-65
2022/04/15 03:55:18;;;;;;;7.97;4.20;;;12.50;99.90;;;;;;5073198;28;20039;-65
2022/04/15 03:57:45;;;;;;;9.60;3.80;;;12.50;99.90;;;;;;5073279;28;20058;-65
2022/04/15 04:00:13;;;;;;;7.18;4.40;;;12.50;99.90;;;;;;5073171;28;20032;-65
2022/04/15 04:02:43;;;;;;;10.07;4.15;;;12.60;99.90;;;;;;5073235;28;20097;-65
2022/04/15 04:05:10;;;;;;;11.27;4.23;;;12.70;99.90;;;;;;5073513;28;20055;-64
2022/04/15 04:07:36;;;;;;;7.72;4.28;;;12.50;99.90;;;;;;5073260;28;20044;-65
2022/04/15 04:10:02;;;;;;;7.43;4.43;;;12.40;99.90;;;;;;5073281;28;20047;-65
2022/04/15 04:12:33;;;;;;;12.10;5.32;;;12.30;99.90;;;;;;5072979;28;20431;-65
2022/04/15 04:15:03;;;;;;;9.45;4.40;;;12.30;99.90;;;;;;5072886;28;20038;-65
2022/04/15 04:17:28;;;;;;;8.38;4.95;;;12.30;99.90;;;;;;5072875;28;20044;-65
2022/04/15 04:19:55;;;;;;;12.63;6.20;;;12.40;99.90;;;;;;5073136;28;20120;-65
2022/04/15 04:22:20;;;;;;;10.00;6.13;;;12.50;99.90;;;;;;5072862;28;20523;-65
2022/04/15 04:24:46;;;;;;;12.55;5.78;;;12.50;99.90;;;;;;5072676;28;20048;-65
2022/04/15 04:27:12;;;;;;;9.23;5.47;;;12.50;99.90;;;;;;5072709;28;20040;-64
2022/04/15 04:29:38;;;;;;;10.70;5.43;;;12.50;99.90;;;;;;5073066;28;20083;-65
2022/04/15 04:32:04;;;;;;;12.95;5.78;;;12.40;99.90;;;;;;5073147;28;20499;-65
2022/04/15 04:34:29;;;;;;;8.82;5.80;;;12.40;99.90;;;;;;5072787;28;20097;-65
2022/04/15 04:36:55;;;;;;;12.80;6.28;;;12.40;99.90;;;;;;5072637;28;20036;-65
2022/04/15 04:39:25;;;;;;;14.63;5.63;;;12.40;99.90;;;;;;5072525;28;20381;-65
2022/04/15 04:41:51;;;;;;;11.32;6.10;;;12.40;99.90;;;;;;5072159;28;20442;-65
2022/04/15 04:44:17;;;;;;;9.00;4.80;;;12.40;99.90;;;;;;5072967;28;20514;-65
2022/04/15 04:46:43;;;;;;;11.95;5.90;;;12.30;99.90;;;;;;5072881;28;20045;-65
2022/04/15 04:49:09;;;;;;;8.88;5.82;;;12.30;99.90;;;;;;5076394;28;20128;-65
2022/04/15 04:51:35;;;;;;;11.80;4.78;;;12.30;99.90;;;;;;5096886;28;20028;-65
2022/04/15 04:54:01;;;;;;;13.32;5.60;;;12.30;99.90;;;;;;5097149;28;20055;-65
2022/04/15 04:56:27;;;;;;;11.73;6.25;;;12.20;99.90;;;;;;5097131;28;20072;-64
2022/04/15 04:58:53;;;;;;;10.23;5.63;;;12.20;99.90;;;;;;5096911;28;20039;-65
2022/04/15 05:01:18;;;;;;;12.30;6.40;;;12.10;99.90;;;;;;5096572;28;20124;-65
2022/04/15 05:03:44;;;;;;;11.75;5.72;;;12.10;99.90;;;;;;5096659;28;20043;-65
2022/04/15 05:06:10;;;;;;;10.18;5.22;;;;;;;;;;5096429;28;20040;-66
2022/04/15 05:08:36;;;;;;;13.75;5.80;;;12.00;99.90;;;;;;5096690;28;20042;-66
2022/04/15 05:11:02;;;;;;;10.05;5.10;;;12.00;99.90;;;;;;5096797;28;20372;-65
2022/04/15 05:13:27;;;;;;;13.82;6.03;;;12.00;99.90;;;;;;5096694;28;20050;-65
2022/04/15 05:15:53;;;;;;;12.95;5.03;;;11.90;99.90;;;;;;5096753;28;20068;-65
2022/04/15 05:18:19;;;;;;;8.05;5.18;;;12.00;99.90;;;;;;5096571;28;20065;-65
2022/04/15 05:20:45;;;;;;;12.63;5.18;;;12.00;99.90;;;;;;5096755;28;20043;-65
2022/04/15 05:23:12;;;;;;;9.52;5.10;;;12.00;99.90;;;;;;5096494;28;20032;-65
2022/04/15 05:25:38;;;;;;;12.75;6.28;;;11.90;99.90;;;;;;5096429;28;20036;-65
2022/04/15 05:28:05;;;;;;;13.13;5.85;;;11.90;99.90;;;;;;5096362;28;20036;-65
2022/04/15 05:30:30;;;;;;;14.55;6.20;;;12.10;99.90;;;;;;5083492;28;20066;-65
2022/04/15 05:32:56;;;;;;;11.23;5.70;;;12.10;99.90;;;;;;5086954;28;20136;-66
2022/04/15 05:35:22;;;;;;;10.13;5.35;;;12.20;99.90;;;;;;5073247;28;20039;-65
2022/04/15 05:37:48;;;;;;;11.75;5.97;;;12.20;99.90;;;;;;5073999;28;20032;-65
2022/04/15 05:40:14;;;;;;;7.30;5.57;;;12.20;99.90;;;;;;5075291;28;20460;-65
2022/04/15 05:42:39;;;;;;;13.30;5.90;;;12.30;99.90;;;;;;5075851;28;20044;-65
2022/04/15 05:45:06;;;;;;;14.75;6.65;;;12.30;99.90;;;;;;5075986;28;20044;-65
2022/04/15 05:47:31;;;;;;;11.43;6.63;;;12.30;99.90;;;;;;5075971;28;20043;-65
2022/04/15 05:49:57;;;;;;;11.13;6.07;;;12.40;99.90;;;;;;5075745;28;20036;-64
2022/04/15 05:52:23;;;;;;;11.25;6.60;;;12.40;99.90;;;;;;5075630;28;20032;-65
2022/04/15 05:54:49;;;;;;;12.20;6.60;;;12.40;99.90;;;;;;5075705;28;20094;-65
2022/04/15 05:57:14;;;;;;;12.23;6.50;;;12.50;99.90;;;;;;5078079;28;20040;-65
2022/04/15 05:59:41;;;;;;;14.77;6.13;;;12.80;99.90;;;;;;5075700;28;20044;-65
2022/04/15 06:02:07;;;;;;;16.48;5.93;;;12.90;99.90;;;;;;5074957;28;20055;-64
2022/04/15 06:04:33;;;;;;;14.68;6.00;;;13.00;99.90;;;;;;5075580;28;20526;-64
2022/04/15 06:06:58;;;;;;;13.88;6.05;;;13.10;99.90;;;;;;5075420;28;20032;-65
2022/04/15 06:09:25;;;;;;;12.23;5.57;;;13.20;99.90;;;;;;5075174;28;20033;-65
2022/04/15 06:11:53;;;;;;;10.05;5.35;;;13.30;99.90;;;;;;5086628;28;20141;-65
2022/04/15 06:14:22;;;;;;;13.98;5.65;;;13.40;99.90;;;;;;5075404;28;20044;-66
2022/04/15 06:16:49;;;;;;;9.45;5.15;;;13.60;99.90;;;;;;5074626;28;20040;-64
2022/04/15 06:19:15;;;;;;;10.07;5.00;;;13.80;99.90;;;;;;5074621;28;20032;-65
2022/04/15 06:21:41;;;;;;;12.77;5.28;;;14.00;99.90;;;;;;5074728;28;20050;-65
2022/04/15 06:24:08;;;;;;;10.95;5.40;;;14.00;99.90;;;;;;5073594;28;20703;-65
2022/04/15 06:26:35;;;;;;;7.72;4.82;;;14.10;99.90;;;;;;5074937;28;20037;-65
2022/04/15 06:29:01;;;;;;;12.00;5.47;;;14.40;99.90;;;;;;5074989;28;20086;-65
2022/04/15 06:31:27;;;;;;;14.52;4.35;;;14.20;99.90;;;;;;5075111;28;20036;-64
2022/04/15 06:33:53;;;;;;;14.52;5.00;;;14.30;99.90;;;;;;5074963;28;20044;-64
2022/04/15 06:36:19;;;;;;;10.73;4.80;;;14.50;99.90;;;;;;5088126;28;20036;-64
2022/04/15 06:38:46;;;;;;;10.02;4.97;;;14.60;99.90;;;;;;5075073;28;20048;-65
2022/04/15 06:41:12;;;;;;;9.95;4.90;;;15.10;99.90;;;;;;5074666;28;20040;-65
2022/04/15 06:43:38;;;;;;;7.97;4.68;;;15.00;99.90;;;;;;5074776;28;20526;-65
2022/04/15 06:46:05;;;;;;;9.85;4.45;;;15.60;99.90;;;;;;5074752;28;20484;-65
2022/04/15 06:48:31;;;;;;;10.70;3.80;;;15.90;99.90;;;;;;5074718;28;20037;-64
2022/04/15 06:50:57;;;;;;;7.07;3.47;;;16.00;99.90;;;;;;5074919;28;20068;-65
2022/04/15 06:53:23;;;;;;;16.42;4.50;;;15.70;99.90;;;;;;5074638;28;20083;-65
2022/04/15 06:55:53;;;;;;;5.63;3.40;;;15.80;99.90;;;;;;5074771;28;20467;-65
2022/04/15 06:58:19;;;;;;;7.95;3.35;;;16.10;99.90;;;;;;5074531;28;20048;-65
2022/04/15 07:00:48;;;;;;;10.20;4.22;;;16.20;99.90;;;;;;5074461;28;20029;-65
2022/04/15 07:03:15;;;;;;;8.25;3.50;;;16.50;99.90;;;;;;5074461;28;20087;-65
2022/04/15 07:05:41;;;;;;;6.10;3.60;;;16.40;99.90;;;;;;5074355;28;20079;-65
2022/04/15 07:08:09;;;;;;;6.95;3.13;;;16.30;99.90;;;;;;5074332;28;20547;-65
2022/04/15 07:10:38;;;;;;;8.27;2.88;;;16.30;99.90;;;;;;5085211;28;20024;-65
2022/04/15 07:13:05;;;;;;;11.30;3.17;;;16.60;99.90;;;;;;5075418;28;20084;-65
2022/04/15 07:15:30;;;;;;;6.03;3.00;;;16.90;99.90;;;;;;5073865;28;20059;-65
2022/04/15 07:17:56;;;;;;;10.00;3.35;;;17.20;99.90;;;;;;5074026;28;20141;-65
2022/04/15 07:20:23;;;;;;;6.25;3.10;;;16.80;99.90;;;;;;5074089;28;20402;-65
2022/04/15 07:22:56;;;;;;;9.75;2.83;;;16.70;99.90;;;;;;5074031;28;20048;-65
2022/04/15 07:25:22;;;;;;;6.95;3.33;;;17.40;99.90;;;;;;5075907;28;20040;-65
2022/04/15 07:27:47;;;;;;;6.15;2.95;;;17.70;99.90;;;;;;5073144;28;20040;-65
2022/04/15 07:30:13;;;;;;;7.05;4.07;;;18.30;99.90;;;;;;5073186;28;20068;-65
2022/04/15 07:32:39;;;;;;;10.48;3.42;;;17.90;99.90;;;;;;5073950;28;20515;-65
2022/04/15 07:35:05;;;;;;;15.60;3.00;;;17.30;99.90;;;;;;5073842;28;20165;-65
2022/04/15 07:37:31;;;;;;;8.95;2.78;;;17.70;99.90;;;;;;5073503;28;20511;-66
2022/04/15 07:39:56;;;;;;;4.50;2.50;;;18.20;99.90;;;;;;5072860;28;20036;-65
2022/04/15 07:42:22;;;;;;;7.93;2.58;;;18.40;99.90;;;;;;5073458;28;20059;-65
2022/04/15 07:44:48;;;;;;;6.90;2.35;;;18.90;99.90;;;;;;5073337;28;20043;-66
2022/04/15 07:47:15;;;;;;;5.57;2.58;;;18.40;99.90;;;;;;5073372;28;20048;-65
2022/04/15 07:49:41;;;;;;;242.85;30.58;;;18.70;99.90;;;;;;5073592;28;20039;-65
2022/04/15 07:52:07;;;;;;;11.27;3.05;;;18.70;99.90;;;;;;5073466;28;20052;-65
2022/04/15 07:54:33;;;;;;;13.93;3.72;;;18.50;99.90;;;;;;5073619;28;20111;-66
2022/04/15 07:57:00;;;;;;;8.55;3.30;;;18.50;99.90;;;;;;5073414;28;20766;-66
2022/04/15 07:59:26;;;;;;;11.82;6.05;;;18.50;99.90;;;;;;5073387;28;20118;-66
2022/04/15 08:01:52;;;;;;;26.45;4.68;;;19.30;99.90;;;;;;5073505;28;20107;-66
2022/04/15 08:04:18;;;;;;;6.60;2.92;;;19.60;99.90;;;;;;5073709;28;20539;-66
2022/04/15 08:06:44;;;;;;;17.27;8.43;;;19.90;99.90;;;;;;5073357;28;20128;-65
2022/04/15 08:09:10;;;;;;;14.82;8.63;;;19.20;99.90;;;;;;5073311;28;20044;-66
2022/04/15 08:11:36;;;;;;;15.20;8.88;;;19.00;99.90;;;;;;5073358;28;20041;-65
2022/04/15 08:14:01;;;;;;;14.57;9.43;;;19.10;99.90;;;;;;5075637;28;20059;-65
2022/04/15 08:16:28;;;;;;;18.90;9.63;;;18.60;99.90;;;;;;5073216;28;20040;-65
2022/04/15 08:18:56;;;;;;;12.45;9.13;;;18.90;99.90;;;;;;5073178;28;20063;-65
2022/04/15 08:21:22;;;;;;;12.23;8.90;;;18.60;99.90;;;;;;5073170;28;20051;-65
2022/04/15 08:23:48;;;;;;;19.27;9.20;;;18.20;99.90;;;;;;5072786;28;20111;-65
2022/04/15 08:26:14;;;;;;;14.02;8.82;;;18.00;99.90;;;;;;5073155;28;20048;-65
2022/04/15 08:28:39;;;;;;;17.92;8.95;;;18.30;99.90;;;;;;5073169;28;20127;-65
2022/04/15 08:31:07;;;;;;;19.17;9.30;;;18.70;99.90;;;;;;5073224;28;20127;-64
2022/04/15 08:33:34;;;;;;;12.60;8.65;;;18.30;99.90;;;;;;5073022;28;20051;-65
2022/04/15 08:36:00;;;;;;;18.48;8.95;;;18.10;99.90;;;;;;5072650;28;20393;-65
2022/04/15 08:38:26;;;;;;;21.90;9.77;;;18.20;99.90;;;;;;5073098;28;20064;-65
2022/04/15 08:40:59;;;;;;;18.10;10.48;;;18.20;99.90;;;;;;5073232;28;20094;-65
2022/04/15 08:43:25;;;;;;;14.75;9.35;;;18.70;99.90;;;;;;5073011;28;20420;-65
2022/04/15 08:45:51;;;;;;;16.80;9.73;;;18.60;99.90;;;;;;5072988;28;20039;-65
2022/04/15 08:48:17;;;;;;;19.58;11.05;;;18.80;99.90;;;;;;5073094;28;20048;-66
2022/04/15 08:50:43;;;;;;;18.38;10.05;;;18.80;99.90;;;;;;5072889;28;20032;-65
2022/04/15 08:53:09;;;;;;;21.65;10.93;;;18.40;99.90;;;;;;5072847;28;20060;-65
2022/04/15 08:55:35;;;;;;;18.63;11.00;;;18.50;99.90;;;;;;5072946;28;20388;-65
2022/04/15 08:58:01;;;;;;;21.73;10.52;;;18.50;99.90;;;;;;5072853;28;20075;-66
2022/04/15 09:00:27;;;;;;;17.30;10.02;;;18.30;99.90;;;;;;5072881;28;20458;-65
2022/04/15 09:02:55;;;;;;;15.45;9.90;;;18.60;99.90;;;;;;5072857;28;20041;-65
2022/04/15 09:05:24;;;;;;;20.70;9.45;;;18.50;99.90;;;;;;5072850;28;20040;-65
2022/04/15 09:07:49;;;;;;;18.25;10.55;;;18.50;99.90;;;;;;5072728;28;20036;-65
2022/04/15 09:10:18;;;;;;;16.85;10.10;;;18.50;99.90;;;;;;5072709;28;20037;-65
2022/04/15 09:12:46;;;;;;;15.23;8.93;;;18.70;99.90;;;;;;5072995;28;20040;-65
2022/04/15 09:15:13;;;;;;;20.35;9.82;;;18.80;99.90;;;;;;5072813;28;20044;-65
2022/04/15 09:17:51;;;;;;;16.00;7.97;;;19.20;99.90;;;;;;5073018;28;20040;-65
2022/04/15 09:20:18;;;;;;;20.17;9.00;;;19.30;99.90;;;;;;5072911;28;20040;-65
2022/04/15 09:22:44;;;;;;;16.17;8.35;;;19.00;99.90;;;;;;5072601;28;20052;-65
2022/04/15 09:25:11;;;;;;;13.60;7.25;;;19.20;99.90;;;;;;5072521;28;20024;-65
2022/04/15 09:27:38;;;;;;;20.35;9.05;;;19.00;99.90;;;;;;5072422;28;20135;-66
2022/04/15 09:30:04;;;;;;;17.77;10.30;;;19.10;99.90;;;;;;5072394;28;20045;-66
2022/04/15 09:32:31;;;;;;;14.80;7.82;;;18.80;99.90;;;;;;5072146;28;20060;-65
2022/04/15 09:35:01;;;;;;;14.13;8.60;;;19.30;99.90;;;;;;5072451;28;20067;-65
2022/04/15 09:37:44;;;;;;;17.45;8.98;;;19.40;99.90;;;;;;5072422;28;20028;-65
2022/04/15 09:40:12;;;;;;;18.10;8.80;;;19.50;99.90;;;;;;5073403;28;20047;-65
2022/04/15 09:42:43;;;;;;;16.77;9.48;;;19.40;99.90;;;;;;5077457;28;20055;-65
2022/04/15 09:45:24;;;;;;;13.85;8.15;;;19.50;99.90;;;;;;5075876;28;20033;-65
2022/04/15 09:47:56;;;;;;;18.88;8.27;;;19.50;99.90;;;;;;5076050;28;20514;-65
2022/04/15 09:50:25;;;;;;;13.20;7.72;;;19.10;99.90;;;;;;5075834;28;20058;-66
2022/04/15 09:52:54;;;;;;;12.50;7.63;;;19.50;99.90;;;;;;5075786;28;20131;-67
2022/04/15 09:55:23;;;;;;;13.98;7.93;;;20.30;99.90;;;;;;5075822;28;20150;-66
2022/04/15 09:57:50;;;;;;;14.02;8.40;;;19.80;99.90;;;;;;5075739;28;20565;-65
2022/04/15 10:00:18;;;;;;;14.90;8.00;;;19.90;99.90;;;;;;5075469;28;20028;-65
2022/04/15 10:02:45;;;;;;;16.83;7.15;;;19.80;99.90;;;;;;5075468;28;20093;-65
2022/04/15 10:05:15;;;;;;;16.20;6.80;;;19.90;99.90;;;;;;5075696;28;20064;-65
2022/04/15 10:07:42;;;;;;;14.60;6.90;;;19.80;99.90;;;;;;5075550;28;20043;-65
2022/04/15 10:10:09;;;;;;;12.13;6.70;;;20.20;99.90;;;;;;5075277;28;20500;-66
2022/04/15 10:12:39;;;;;;;14.38;7.45;;;20.10;99.90;;;;;;5075244;28;20060;-65
2022/04/15 10:15:09;;;;;;;17.55;7.45;;;19.90;99.90;;;;;;5075574;28;20464;-65
2022/04/15 10:17:39;;;;;;;;;;;19.60;99.90;;;;;;5075986;28;20389;-66
2022/04/15 10:20:09;;;;;;;13.82;6.32;;;19.30;99.90;;;;;;5084681;28;19907;-65
2022/04/15 10:22:40;;;;;;;15.88;7.80;;;19.40;99.90;;;;;;5095443;28;20043;-65
2022/04/15 10:25:07;;;;;;;11.40;6.28;;;19.60;99.90;;;;;;5087851;28;20040;-66
2022/04/15 10:27:33;;;;;;;19.83;6.75;;;18.80;99.90;;;;;;5079096;28;20106;-65
2022/04/15 10:30:14;;;;;;;10.20;5.60;;;18.70;99.90;;;;;;5094999;28;20040;-66
2022/04/15 10:32:55;;;;;;;15.70;5.90;;;18.80;99.90;;;;;;5095104;28;20403;-65
2022/04/15 10:35:23;;;;;;;17.20;5.80;;;18.60;99.90;;;;;;5095341;28;20059;-65
2022/04/15 10:37:59;;;;;;;10.35;5.65;;;18.90;99.90;;;;;;5095220;28;20028;-65
2022/04/15 10:40:35;;;;;;;11.32;4.32;;;19.50;99.90;;;;;;5094985;28;20035;-65
2022/04/15 10:43:23;;;;;;;13.32;4.40;;;19.50;99.90;;;;;;5081174;28;20504;-65
2022/04/15 10:45:54;;;;;;;17.05;5.40;;;19.90;99.90;;;;;;5074917;28;20044;-65
2022/04/15 10:48:31;;;;;;;10.43;4.50;;;19.90;99.90;;;;;;5077202;28;20040;-65
2022/04/15 10:51:12;;;;;;;13.65;4.95;;;19.90;99.90;;;;;;5074669;28;20036;-65
2022/04/15 10:53:38;;;;;;;12.23;4.97;;;19.80;99.90;;;;;;5074484;28;20053;-65
2022/04/15 10:56:08;;;;;;;9.82;4.93;;;19.30;99.90;;;;;;5074378;28;20036;-65
2022/04/15 11:01:13;;;;;;;15.38;3.67;;;18.80;99.90;;;;;;5074785;28;20139;-65
2022/04/15 11:01:32;;;;;;;12.15;4.50;;;19.40;99.90;;;;;;5073901;28;20114;-65
2022/04/15 11:04:05;;;;;;;9.43;4.20;;;20.00;99.90;;;;;;5074545;28;20091;-65
2022/04/15 11:06:31;;;;;;;10.82;4.95;;;20.10;99.90;;;;;;5074496;28;20072;-65
2022/04/15 11:09:12;;;;;;;11.90;4.47;;;20.10;99.90;;;;;;5074399;28;20036;-65
2022/04/15 11:11:41;;;;;;;10.13;4.20;;;20.80;99.90;;;;;;5074382;28;20455;-66
2022/04/15 11:14:08;;;;;;;12.00;4.03;;;20.30;99.90;;;;;;5074106;28;20048;-65
2022/04/15 11:16:47;;;;;;;9.18;3.83;;;20.40;99.90;;;;;;5073990;28;20046;-65
2022/04/15 11:19:22;;;;;;;6.78;3.95;;;20.00;99.90;;;;;;5074143;28;20123;-65
2022/04/15 11:21:50;;;;;;;13.35;3.90;;;19.80;99.90;;;;;;5074238;28;20033;-65
2022/04/15 11:24:25;;;;;;;9.80;4.35;;;20.00;99.90;;;;;;5074185;28;20067;-65
2022/04/15 11:27:01;;;;;;;6.90;3.97;;;20.10;99.90;;;;;;5074053;28;20044;-64
2022/04/15 11:29:31;;;;;;;12.20;4.75;;;20.10;99.90;;;;;;5074022;28;20060;-65
2022/04/15 11:31:59;;;;;;;7.60;4.05;;;20.20;99.90;;;;;;5073674;28;20582;-65
2022/04/15 11:34:26;;;;;;;13.68;4.40;;;20.50;99.90;;;;;;5073761;28;20078;-65
2022/04/15 11:36:53;;;;;;;9.70;3.30;;;20.20;99.90;;;;;;5073900;28;20040;-65
2022/04/15 11:39:23;;;;;;;11.63;3.53;;;20.20;99.90;;;;;;5073837;28;20056;-65
2022/04/15 11:41:54;;;;;;;11.13;3.90;;;20.20;99.90;;;;;;5073654;28;20713;-66
2022/04/15 11:44:21;;;;;;;9.35;3.72;;;20.10;99.90;;;;;;5073680;28;20094;-66
2022/04/15 11:46:49;;;;;;;9.02;3.38;;;20.50;99.90;;;;;;5073879;28;20091;-65
2022/04/15 11:49:26;;;;;;;8.20;3.45;;;20.50;99.90;;;;;;5073475;28;20033;-66
2022/04/15 11:51:57;;;;;;;8.68;4.43;;;20.60;99.90;;;;;;5073347;28;20040;-66
2022/04/15 11:54:33;;;;;;;12.32;3.60;;;20.20;99.90;;;;;;5073225;28;20063;-65
2022/04/15 11:57:03;;;;;;;7.75;3.60;;;20.30;99.90;;;;;;5073268;28;20392;-65
2022/04/15 11:59:36;;;;;;;8.98;2.92;;;19.90;99.90;;;;;;5089607;28;20488;-65
2022/04/15 12:02:02;;;;;;;16.45;3.38;;;20.40;99.90;;;;;;5093777;28;20032;-65
2022/04/15 12:04:28;;;;;;;16.92;3.72;;;20.60;99.90;;;;;;5093594;28;20568;-65
2022/04/15 12:06:54;;;;;;;11.95;4.07;;;20.80;99.90;;;;;;5093544;28;20123;-66
2022/04/15 12:09:19;;;;;;;9.88;3.97;;;20.40;99.70;;;;;;5093349;28;20123;-66
2022/04/15 12:11:45;;;;;;;13.10;3.70;;;20.50;99.90;;;;;;5093360;28;20102;-65
2022/04/15 12:14:13;;;;;;;8.07;3.42;;;20.20;99.90;;;;;;5093232;28;20392;-65
2022/04/15 12:16:47;;;;;;;12.48;3.30;;;19.70;99.90;;;;;;5089731;28;20569;-65
2022/04/15 12:19:13;;;;;;;10.23;3.95;;;19.80;99.90;;;;;;5085534;28;20131;-65
2022/04/15 12:21:42;;;;;;;13.40;4.60;;;19.80;99.90;;;;;;5093026;28;20407;-65
2022/04/15 12:24:19;;;;;;;13.73;4.00;;;20.00;99.90;;;;;;5086313;28;20040;-65
2022/04/15 12:26:48;;;;;;;10.48;3.92;;;20.40;99.90;;;;;;5072546;28;20412;-65
2022/04/15 12:32:35;;;;;;;10.32;4.10;;;20.40;99.90;;;;;;5081549;28;20050;-65
2022/04/15 12:35:00;;;;;;;13.05;4.18;;;19.90;99.90;;;;;;5072650;28;20127;-65
2022/04/15 12:37:44;;;;;;;7.32;3.42;;;19.50;99.90;;;;;;5072683;28;20123;-65
2022/04/15 12:40:30;;;;;;;12.05;4.18;;;19.50;99.90;;;;;;5075028;28;20048;-65
2022/04/15 12:43:17;;;;;;;15.43;3.60;;;19.90;99.90;;;;;;5073834;28;20052;-66
2022/04/15 12:45:53;;;;;;;13.35;3.95;;;20.30;99.70;;;;;;5070249;28;20052;-66
2022/04/15 12:48:24;;;;;;;8.15;3.55;;;19.60;99.40;;;;;;5070533;28;20442;-66